Date,TemperatureHighF,TemperatureAvgF,TemperatureLowF,DewpointHighF,DewpointAvgF,DewpointLowF,HumidityHigh,HumidityAvg,HumidityLow,PressureMaxIn,PressureMinIn,WindSpeedMaxMPH,WindSpeedAvgMPH,GustSpeedMaxMPH,PrecipitationSumIn
2013-1-1,31,26,17,29,25,17,100,94,79,30.21,30.08,12,4,12,0.02
2013-1-2,27,17,10,25,14,10,100,92,61,30.30,30.19,8,1,8,0.00
2013-1-3,30,20,7,22,16,7,100,83,53,30.35,30.23,18,5,18,0.00
2013-1-4,30,26,22,24,20,17,92,79,62,30.39,30.31,23,8,24,0.00
2013-1-5,39,28,18,28,24,18,100,83,60,30.42,30.21,12,4,13,0.10
2013-1-6,36,30,23,31,26,20,97,87,82,30.40,30.07,16,6,17,0.12
2013-1-7,40,27,18,28,23,18,100,87,57,30.53,30.31,11,3,12,0.04
2013-1-8,49,32,21,34,26,20,100,79,51,30.36,30.26,15,5,16,0.06
2013-1-9,49,41,34,41,34,29,99,77,57,30.55,30.25,18,6,18,0.03
2013-1-10,43,34,25,37,31,25,100,90,77,30.57,30.15,16,4,17,0.08
2013-1-11,58,51,43,55,48,37,100,89,74,30.15,29.93,21,6,24,0.46
2013-1-12,62,55,49,59,54,46,100,96,81,30.06,29.96,12,5,13,0.00
2013-1-13,56,40,33,56,40,33,100,100,99,30.17,29.85,21,10,22,0.75
2013-1-14,33,23,19,33,22,19,100,95,82,30.51,30.17,18,6,18,0.00
2013-1-15,29,24,17,25,22,17,100,91,79,30.44,30.12,13,4,14,0.00
2013-1-16,33,29,27,29,26,23,97,88,69,30.14,30.02,15,4,16,0.01
2013-1-17,40,30,22,30,24,18,97,81,60,30.44,30.14,17,5,19,0.00
2013-1-18,36,26,15,23,18,14,100,74,44,30.57,30.26,19,6,20,0.00
2013-1-19,51,42,32,28,25,22,68,51,35,30.27,29.94,28,8,28,0.00
2013-1-20,44,29,20,34,16,7,77,58,40,30.27,29.94,32,9,33,0.00
2013-1-21,20,16,6,18,9,-2,100,76,56,30.31,30.13,27,10,30,0.00
2013-1-22,14,8,1,4,0,-3,94,71,49,30.43,30.30,21,8,21,0.00
2013-1-23,17,13,6,14,6,0,96,75,53,30.39,30.15,14,4,15,0.00
2013-1-24,20,14,8,16,8,0,100,77,44,30.62,30.16,20,6,22,0.00
2013-1-25,22,18,14,21,14,7,100,85,63,30.49,30.09,16,5,16,0.00
2013-1-26,29,21,15,21,17,15,100,86,60,30.50,30.17,14,4,15,0.04
2013-1-27,34,24,13,32,21,13,100,88,67,30.50,30.21,14,4,15,0.26
2013-1-28,49,44,32,49,44,32,100,99,91,30.21,30.05,18,6,21,0.34
2013-1-29,62,55,48,57,52,48,100,91,77,30.08,29.62,27,8,28,0.03
2013-1-30,64,50,29,58,47,24,100,89,77,29.62,29.31,40,11,40,1.11
2013-1-31,29,22,12,25,17,9,100,81,64,30.08,29.60,36,13,38,0.00
2013-2-1,14,7,2,9,4,0,100,88,72,30.44,30.08,25,8,33,0.00
2013-2-2,27,18,6,26,18,6,100,97,85,30.39,30.03,18,6,18,0.01
2013-2-3,23,17,12,22,15,9,100,91,78,30.18,30.00,18,8,19,0.00
2013-2-4,31,23,13,31,21,13,100,94,71,30.18,29.87,15,4,16,0.01
2013-2-5,33,28,22,31,26,22,100,92,75,30.04,29.89,18,5,19,0.04
2013-2-6,36,29,22,30,25,20,100,84,63,30.32,30.04,17,4,18,0.00
2013-2-7,56,38,25,38,30,23,100,75,44,30.27,29.84,14,4,16,0.00
2013-2-8,48,34,25,43,30,20,100,86,58,30.37,29.82,25,10,29,0.16
2013-2-9,39,26,15,22,19,14,100,78,42,30.49,30.30,10,2,11,0.00
2013-2-10,50,39,24,43,28,20,94,67,40,30.30,29.83,23,6,26,0.02
2013-2-11,49,43,34,48,34,25,100,72,51,30.09,29.79,31,11,31,0.00
2013-2-12,47,35,25,28,25,21,96,69,38,30.19,29.97,19,5,22,0.00
2013-2-13,34,27,24,29,26,22,100,96,70,29.98,29.83,11,4,11,0.04
2013-2-14,49,35,26,37,31,26,100,86,57,30.04,29.83,21,7,21,0.02
2013-2-15,37,29,20,32,27,20,100,93,72,30.21,30.03,23,5,23,0.00
2013-2-16,23,18,13,21,15,10,100,91,67,30.21,30.09,21,6,21,0.00
2013-2-17,28,17,9,14,10,3,100,74,43,30.28,30.18,15,5,17,0.00
2013-2-18,55,38,17,38,22,9,86,55,38,30.27,29.78,27,8,28,0.06
2013-2-19,42,28,20,41,24,14,100,85,68,30.15,29.69,32,13,32,0.16
2013-2-20,21,18,13,18,13,9,100,83,68,30.36,30.15,22,9,24,0.00
2013-2-21,26,21,17,23,18,13,94,85,72,30.41,30.12,20,6,20,0.00
2013-2-22,39,31,25,38,31,22,100,98,89,30.13,29.94,19,5,20,0.06
2013-2-23,40,32,27,32,26,23,100,82,54,30.04,29.93,14,5,14,0.00
2013-2-24,37,28,22,24,22,19,100,80,54,30.22,29.99,16,5,19,0.00
2013-2-25,42,30,17,26,23,17,100,76,51,30.25,29.98,16,4,17,0.00
2013-2-26,43,37,30,43,34,23,100,91,66,29.98,29.43,20,7,24,0.63
2013-2-27,40,34,29,40,33,29,100,98,89,29.77,29.55,22,8,24,0.05
2013-2-28,33,30,28,32,30,28,100,99,92,29.99,29.73,18,8,19,0.04
2013-3-1,34,30,25,31,28,22,100,93,79,30.10,29.97,15,5,15,0.00
2013-3-2,25,23,22,22,20,17,97,87,78,30.13,30.07,14,6,14,0.00
2013-3-3,28,24,21,22,19,14,100,82,61,30.15,30.08,17,6,18,0.00
2013-3-4,43,29,15,31,21,15,100,76,37,30.22,30.06,10,3,10,0.02
2013-3-5,34,31,29,33,30,29,100,97,84,30.08,29.64,17,6,19,0.31
2013-3-6,30,27,24,30,27,24,100,100,96,30.29,29.67,20,8,20,0.09
2013-3-7,36,30,27,31,27,22,100,90,74,30.42,30.27,15,5,15,0.27
2013-3-8,46,31,19,29,22,18,100,73,37,30.52,30.39,9,2,10,0.02
2013-3-9,53,39,25,36,29,22,100,72,48,30.44,30.07,14,4,15,0.00
2013-3-10,66,56,48,41,34,30,61,44,29,30.07,29.87,19,7,22,0.04
2013-3-11,55,45,35,51,42,31,100,90,59,29.91,29.63,26,8,27,1.12
2013-3-12,41,33,30,32,29,26,100,84,59,30.10,29.90,22,8,22,0.01
2013-3-13,30,26,23,30,23,18,100,89,68,30.36,30.04,29,10,29,0.00
2013-3-14,41,29,18,22,19,13,100,70,38,30.39,30.20,17,5,17,0.00
2013-3-15,48,38,26,38,32,21,100,80,58,30.21,29.83,15,4,15,0.00
2013-3-16,55,41,32,50,39,30,100,91,74,30.09,29.65,20,7,21,0.09
2013-3-17,35,32,30,31,28,25,95,85,74,30.21,30.03,17,5,17,0.02
2013-3-18,48,37,29,48,36,29,100,97,83,30.05,29.64,29,8,29,1.13
2013-3-19,39,33,24,34,20,12,94,63,35,30.14,29.87,36,12,36,0.00
2013-3-20,32,27,20,20,15,8,78,62,47,30.14,29.99,25,9,27,0.00
2013-3-21,28,21,15,16,14,8,100,74,51,30.09,30.00,21,7,21,0.00
2013-3-22,43,29,16,21,16,13,95,62,35,30.13,30.01,14,3,14,0.00
2013-3-23,49,35,24,26,21,15,89,59,30,30.12,29.94,12,2,14,0.00
2013-3-24,33,30,28,31,27,23,100,90,68,29.95,29.49,21,5,23,0.06
2013-3-25,30,28,26,30,28,26,100,100,100,29.99,29.49,18,5,19,0.28
2013-3-26,36,31,27,30,28,24,100,88,66,30.27,29.99,19,8,19,0.12
2013-3-27,39,32,26,30,25,21,98,76,52,30.35,30.26,18,7,19,0.00
2013-3-28,47,36,24,29,24,20,89,64,42,30.38,30.29,18,5,18,0.00
2013-3-29,53,40,23,39,28,21,100,66,37,30.37,30.21,17,2,19,0.00
2013-3-30,59,44,27,38,30,23,100,61,33,30.30,29.97,14,3,14,0.00
2013-3-31,55,47,43,47,41,31,100,81,55,29.98,29.79,20,5,25,0.05
2013-4-1,45,37,28,40,25,15,99,62,37,30.19,29.83,21,8,21,0.00
2013-4-2,42,31,20,23,16,12,88,55,31,30.33,30.18,18,5,20,0.00
2013-4-3,47,33,19,19,13,8,75,46,24,30.43,30.30,17,4,18,0.00
2013-4-4,58,40,27,25,18,14,66,43,20,30.40,30.01,13,4,14,0.00
2013-4-5,57,44,32,34,24,19,67,48,28,30.19,30.03,19,4,23,0.00
2013-4-6,65,48,32,35,27,19,67,45,27,30.27,29.91,18,6,19,0.00
2013-4-7,70,61,55,53,42,33,91,52,37,30.03,29.87,22,7,25,0.07
2013-4-8,70,59,50,54,51,47,100,77,55,30.05,29.88,22,5,24,0.08
2013-4-9,78,66,52,58,54,48,95,67,41,30.07,29.91,29,6,30,0.00
2013-4-10,79,68,60,63,58,55,87,70,48,29.98,29.80,28,7,33,0.00
2013-4-11,64,59,55,61,57,54,100,93,80,29.88,29.56,18,5,18,0.88
2013-4-12,55,44,38,55,37,29,100,78,61,29.97,29.55,24,9,27,0.16
2013-4-13,54,43,36,37,34,30,91,69,44,30.09,29.96,22,7,25,0.00
2013-4-14,68,52,35,43,38,32,91,61,35,30.12,29.90,15,5,16,0.00
2013-4-15,68,59,50,53,49,38,85,69,48,30.02,29.92,18,5,18,0.00
2013-4-16,77,61,54,61,56,51,100,85,55,30.20,29.97,23,6,25,0.43
2013-4-17,77,62,50,63,57,50,100,85,56,30.24,29.98,18,5,19,0.34
2013-4-18,79,70,61,61,55,48,85,62,40,30.00,29.63,29,9,30,0.01
2013-4-19,70,45,35,60,37,28,100,76,51,30.03,29.47,29,10,33,0.52
2013-4-20,46,37,31,33,27,22,96,69,42,30.47,30.02,22,7,22,0.00
2013-4-21,55,40,26,31,25,22,88,58,31,30.57,30.39,15,3,17,0.00
2013-4-22,71,53,34,45,33,25,73,49,26,30.43,30.14,12,3,12,0.00
2013-4-23,69,59,45,50,43,34,76,56,47,30.18,29.86,19,6,22,0.00
2013-4-24,62,46,34,56,42,32,100,85,58,30.28,29.81,24,8,25,0.68
2013-4-25,56,42,31,39,32,25,100,70,38,30.43,30.25,25,6,26,0.00
2013-4-26,60,47,28,35,30,24,95,54,31,30.51,30.37,9,2,10,0.00
2013-4-27,68,54,42,50,40,30,88,61,30,30.39,30.07,14,4,16,0.00
2013-4-28,67,56,52,60,54,49,100,93,69,30.09,29.84,13,4,19,0.36
2013-4-29,62,56,51,56,53,51,100,92,72,30.03,29.92,10,4,12,0.02
2013-4-30,77,62,46,56,52,45,100,73,41,30.09,29.98,12,3,12,0.00
2013-5-1,81,67,50,60,53,48,100,64,39,30.19,30.09,13,3,15,0.00
2013-5-2,73,64,56,56,51,48,78,64,47,30.25,30.11,15,4,16,0.00
2013-5-3,75,65,58,56,48,34,82,57,32,30.13,29.97,17,5,22,0.00
2013-5-4,69,60,54,47,43,36,70,54,39,30.05,29.95,16,5,19,0.00
2013-5-5,62,55,51,51,45,36,98,72,43,30.03,29.97,16,3,17,0.04
2013-5-6,60,54,50,58,53,50,100,98,89,30.01,29.95,16,3,17,0.72
2013-5-7,72,59,53,59,55,52,100,86,53,30.01,29.91,12,2,12,0.00
2013-5-8,73,60,50,58,54,49,100,82,46,30.04,29.93,18,3,18,0.00
2013-5-9,79,64,51,61,55,48,100,76,39,30.05,29.95,16,3,19,0.00
2013-5-10,67,60,56,62,59,55,100,97,78,30.03,29.83,22,4,25,0.90
2013-5-11,59,49,40,59,47,37,100,92,74,30.07,29.88,21,6,24,0.09
2013-5-12,52,44,35,39,33,26,100,68,40,30.16,30.05,22,6,22,0.01
2013-5-13,57,48,36,40,31,23,87,55,29,30.19,30.13,19,4,20,0.00
2013-5-14,79,61,41,57,44,28,68,54,39,30.19,29.82,20,6,24,0.01
2013-5-15,84,73,64,59,56,53,76,56,38,29.89,29.79,23,6,25,0.00
2013-5-16,79,66,59,67,60,54,100,81,55,30.02,29.86,18,3,19,0.19
2013-5-17,78,64,55,68,61,55,100,90,51,30.09,29.99,14,2,17,0.52
2013-5-18,79,66,59,67,62,59,100,90,58,30.09,29.97,14,2,14,0.01
2013-5-19,84,70,59,70,63,59,100,83,51,30.02,29.89,10,2,10,0.00
2013-5-20,83,73,65,70,66,63,100,81,55,30.02,29.89,15,5,19,0.00
2013-5-21,82,72,64,67,62,58,96,71,48,29.97,29.80,19,5,19,0.00
2013-5-22,77,66,61,68,61,58,100,86,56,29.88,29.74,18,5,20,0.55
2013-5-23,66,58,47,61,55,41,100,88,68,30.15,29.83,21,7,23,0.25
2013-5-24,63,51,43,44,38,30,91,63,33,30.35,30.13,18,6,19,0.00
2013-5-25,66,53,39,46,41,34,99,66,37,30.41,30.25,10,2,11,0.00
2013-5-26,71,58,45,47,43,38,99,60,37,30.32,30.19,12,2,13,0.00
2013-5-27,81,64,49,60,52,43,100,66,43,30.24,29.94,18,5,18,0.18
2013-5-28,80,72,64,64,59,56,85,65,46,30.03,29.93,20,5,24,0.00
2013-5-29,84,73,64,63,59,54,82,62,37,30.08,30.01,18,5,19,0.00
2013-5-30,85,74,65,65,63,61,91,70,49,30.15,30.00,18,4,18,0.00
2013-5-31,80,69,63,70,64,61,100,86,59,30.09,29.97,23,5,34,0.95
2013-6-1,79,71,65,68,66,63,100,84,61,29.99,29.79,24,6,25,0.00
2013-6-2,74,67,61,66,59,54,97,78,55,29.97,29.83,16,6,19,0.00
2013-6-3,68,58,49,55,50,46,95,77,54,30.11,29.97,17,4,17,0.00
2013-6-4,76,60,45,54,45,34,100,64,29,30.17,30.06,14,2,16,0.00
2013-6-5,84,67,52,64,54,47,93,64,38,30.13,29.86,11,2,13,0.00
2013-6-6,71,63,59,68,62,58,100,98,81,29.89,29.79,14,3,17,0.34
2013-6-7,73,61,55,59,55,52,100,85,49,29.95,29.80,12,3,13,0.00
2013-6-8,75,63,51,62,56,51,100,80,56,30.06,29.93,10,2,11,0.00
2013-6-9,82,70,61,64,61,56,98,77,46,30.09,29.92,10,3,13,0.00
2013-6-10,77,66,61,70,63,57,100,92,57,29.93,29.79,19,4,23,0.46
2013-6-11,83,70,60,68,63,58,100,82,47,29.97,29.88,13,4,14,0.04
2013-6-12,87,77,68,73,68,64,92,76,54,29.93,29.71,17,4,17,0.00
2013-6-13,78,68,61,70,60,52,100,76,48,29.95,29.62,24,7,24,1.33
2013-6-14,77,65,53,59,55,51,100,71,44,30.09,29.95,15,4,15,0.00
2013-6-15,82,69,53,62,58,52,100,72,46,30.14,29.95,12,3,13,0.00
2013-6-16,73,68,64,67,63,60,100,86,72,30.03,29.95,15,4,16,0.04
2013-6-17,87,72,64,70,65,59,100,80,44,30.00,29.86,16,2,16,0.00
2013-6-18,82,69,61,69,62,56,100,80,51,30.04,29.85,14,3,17,0.70
2013-6-19,81,66,53,60,54,47,100,68,38,30.16,30.03,13,2,14,0.00
2013-6-20,86,70,53,65,57,52,100,67,36,30.21,30.13,9,2,9,0.00
2013-6-21,87,76,55,68,61,54,100,62,40,30.24,30.11,11,2,11,0.00
2013-6-22,86,74,65,70,66,63,100,78,52,30.17,30.04,13,4,14,0.01
2013-6-23,87,73,63,72,65,61,100,79,45,30.14,30.03,27,3,27,0.00
2013-6-24,85,74,64,72,66,61,100,80,45,30.15,30.01,14,3,15,0.04
2013-6-25,87,76,65,72,68,65,100,77,50,30.08,29.87,17,4,17,0.00
2013-6-26,84,71,64,71,67,63,100,87,60,29.97,29.79,19,4,21,0.22
2013-6-27,81,71,64,71,67,64,100,87,62,29.82,29.71,15,4,18,0.04
2013-6-28,80,70,61,69,64,52,100,82,46,29.72,29.58,30,6,34,0.07
2013-6-29,77,66,59,67,62,59,100,89,59,29.70,29.59,11,3,12,0.02
2013-6-30,81,67,60,67,63,58,100,90,49,29.87,29.69,16,2,16,0.15
2013-7-1,78,66,60,69,64,60,100,95,66,29.95,29.85,12,3,14,0.12
2013-7-2,84,70,62,70,64,62,100,83,52,30.04,29.93,10,2,12,0.03
2013-7-3,80,72,65,69,66,62,100,83,57,30.13,30.03,11,3,15,0.01
2013-7-4,69,66,65,68,66,65,100,100,96,30.18,30.09,11,2,11,1.38
2013-7-5,79,69,63,70,66,63,100,93,69,30.17,30.09,10,3,14,0.12
2013-7-6,76,68,65,74,68,65,100,99,90,30.15,30.03,15,3,15,1.58
2013-7-7,82,69,61,69,65,61,100,87,56,30.13,30.01,13,3,14,0.00
2013-7-8,83,74,65,72,68,65,100,82,61,30.14,30.02,13,4,15,0.00
2013-7-9,85,76,69,73,70,66,100,84,59,30.09,29.99,19,4,25,0.18
2013-7-10,86,74,64,76,71,64,100,91,66,30.01,29.83,26,4,36,0.41
2013-7-11,79,68,59,66,61,52,100,79,54,30.06,29.96,16,3,17,0.00
2013-7-12,81,67,54,61,57,50,100,72,43,30.12,30.02,13,2,14,0.00
2013-7-13,83,71,60,67,63,59,100,77,51,30.17,30.07,14,2,15,0.00
2013-7-14,87,76,64,74,69,64,100,79,57,30.24,30.14,11,3,13,0.00
2013-7-15,92,79,69,73,69,63,100,73,42,30.31,30.20,12,2,12,0.00
2013-7-16,93,80,67,78,70,66,100,76,44,30.33,30.23,7,1,7,0.00
2013-7-17,90,79,69,77,70,66,100,77,50,30.33,30.17,12,2,12,0.00
2013-7-18,91,80,68,78,69,60,100,72,38,30.23,30.01,9,2,10,0.00
2013-7-19,86,76,67,76,72,65,100,86,62,30.08,29.90,26,4,26,0.60
2013-7-20,84,73,67,77,70,65,100,92,64,29.96,29.86,32,3,32,0.53
2013-7-21,88,73,64,74,68,64,100,87,54,29.99,29.89,12,1,12,0.00
2013-7-22,77,70,67,75,69,67,100,97,77,29.95,29.78,12,2,14,0.52
2013-7-23,83,72,65,73,68,63,100,88,66,29.87,29.74,16,4,18,0.03
2013-7-24,78,65,56,63,57,53,100,79,53,30.05,29.85,12,4,14,0.00
2013-7-25,80,64,49,62,54,49,100,74,41,30.13,30.04,11,1,12,0.00
2013-7-26,80,67,51,67,57,51,100,74,44,30.14,29.99,10,2,12,0.00
2013-7-27,75,65,60,67,60,52,100,84,50,30.00,29.84,18,4,18,0.50
2013-7-28,70,61,51,56,51,46,100,73,48,30.09,29.94,15,4,17,0.00
2013-7-29,73,63,52,58,54,50,100,73,50,30.23,30.09,15,4,17,0.00
2013-7-30,79,66,53,70,58,53,100,78,44,30.26,30.15,8,1,9,0.00
2013-7-31,74,67,62,67,64,62,100,91,73,30.15,29.97,10,3,11,0.01
2013-8-1,77,69,62,67,62,52,100,80,48,30.01,29.93,14,5,17,0.00
2013-8-2,81,68,54,65,59,54,100,75,47,30.04,29.95,14,3,14,0.00
2013-8-3,79,69,63,69,64,57,100,86,53,30.06,29.97,11,3,14,0.09
2013-8-4,76,65,55,62,56,51,96,73,46,30.16,30.06,16,3,17,0.01
2013-8-5,78,65,52,66,56,51,100,76,43,30.16,29.99,9,2,10,0.00
2013-8-6,81,69,59,68,61,55,98,77,53,30.03,29.92,12,3,13,0.00
2013-8-7,83,73,65,73,69,65,100,88,62,29.97,29.87,10,3,12,0.00
2013-8-8,80,71,66,74,70,66,100,98,74,29.97,29.91,14,2,16,0.00
2013-8-9,82,70,67,72,68,64,100,93,60,30.06,29.93,10,2,11,0.24
2013-8-10,85,72,63,74,66,62,100,84,52,30.12,30.03,7,1,8,0.00
2013-8-11,82,72,63,75,66,60,100,83,55,30.11,30.03,14,3,14,0.00
2013-8-12,85,71,60,72,64,60,100,82,45,30.11,29.90,10,2,11,0.01
2013-8-13,74,67,55,69,60,46,100,79,55,30.10,29.88,18,6,19,0.01
2013-8-14,71,58,47,53,49,44,100,75,43,30.22,30.10,16,2,20,0.00
2013-8-15,76,60,44,63,52,44,100,78,45,30.22,30.08,10,1,10,0.00
2013-8-16,79,64,52,63,54,50,100,74,43,30.20,30.11,10,1,13,0.00
2013-8-17,82,66,54,65,58,51,100,76,46,30.22,30.11,12,2,13,0.00
2013-8-18,82,68,55,70,60,54,100,80,44,30.21,30.08,10,2,10,0.00
2013-8-19,86,69,56,72,60,53,100,77,40,30.18,30.05,10,1,12,0.00
2013-8-20,84,71,57,73,61,56,100,76,44,30.18,30.08,12,2,12,0.00
2013-8-21,86,72,62,71,66,60,100,83,55,30.19,30.05,10,2,12,0.00
2013-8-22,81,70,63,71,67,63,100,91,59,30.13,30.05,16,4,17,0.04
2013-8-23,87,72,63,69,64,59,100,81,44,30.18,30.03,11,2,11,0.01
2013-8-24,86,70,55,67,60,53,99,73,40,30.28,30.18,11,2,11,0.00
2013-8-25,86,71,56,69,58,47,100,70,29,30.37,30.21,9,2,11,0.00
2013-8-26,84,73,58,70,65,58,100,78,49,30.28,30.07,15,4,15,0.00
2013-8-27,87,76,67,73,70,66,100,81,57,30.09,29.95,10,3,11,0.00
2013-8-28,87,78,71,72,71,68,100,81,58,29.99,29.87,21,6,21,0.00
2013-8-29,86,73,65,71,68,65,100,87,56,30.08,29.98,12,1,12,0.00
2013-8-30,89,74,62,74,65,61,100,77,44,30.03,29.84,11,2,11,0.00
2013-8-31,87,74,66,74,69,64,100,86,62,29.91,29.78,16,4,19,0.22
2013-9-1,85,72,63,70,67,63,100,85,56,29.87,29.75,13,3,13,0.01
2013-9-2,80,72,64,72,66,57,100,84,57,29.92,29.80,16,5,17,0.00
2013-9-3,74,62,53,58,54,49,100,77,47,30.11,29.92,14,4,17,0.00
2013-9-4,80,64,48,65,55,48,100,76,44,30.17,30.08,12,2,12,0.00
2013-9-5,82,68,53,64,56,46,100,71,42,30.24,30.11,16,2,19,0.00
2013-9-6,81,63,47,57,48,39,100,64,24,30.29,30.11,11,1,14,0.00
2013-9-7,83,68,51,65,56,46,100,69,45,30.15,29.95,12,3,13,0.00
2013-9-8,90,74,64,69,65,60,100,76,41,30.03,29.91,9,2,10,0.00
2013-9-9,89,75,63,70,66,61,100,75,40,30.05,29.94,13,4,15,0.00
2013-9-10,91,78,70,72,70,67,97,76,49,30.15,30.03,13,4,14,0.00
2013-9-11,90,77,67,75,69,65,100,78,46,30.17,30.00,11,4,14,0.01
2013-9-12,76,70,61,70,67,60,100,91,62,30.03,29.87,15,4,17,0.73
2013-9-13,62,55,47,61,47,41,99,77,49,30.14,29.95,17,6,19,0.00
2013-9-14,71,53,38,53,43,38,100,73,35,30.21,30.09,13,2,13,0.00
2013-9-15,75,59,42,58,49,42,100,72,40,30.19,30.02,16,2,16,0.06
2013-9-16,70,59,52,59,54,49,100,85,54,30.33,30.11,13,2,13,0.01
2013-9-17,75,59,46,54,50,46,100,76,40,30.36,30.17,12,3,13,0.00
2013-9-18,80,64,54,65,57,51,100,82,45,30.21,30.04,11,3,13,0.00
2013-9-19,77,67,61,71,64,61,100,92,63,30.11,29.99,12,4,13,0.17
2013-9-20,83,70,64,69,65,63,100,88,54,30.03,29.80,24,5,24,2.38
2013-9-21,69,62,54,65,56,47,100,83,50,29.92,29.73,18,6,19,0.89
2013-9-22,66,54,44,51,45,41,100,75,42,30.07,29.92,15,3,16,0.00
2013-9-23,70,54,40,51,45,40,100,76,44,30.16,30.05,12,2,13,0.00
2013-9-24,75,56,40,59,48,40,100,77,47,30.16,29.92,11,2,12,0.00
2013-9-25,74,58,48,59,51,46,100,80,46,29.99,29.87,9,1,10,0.00
2013-9-26,80,61,45,65,52,44,100,76,40,30.12,29.98,10,1,10,0.00
2013-9-27,81,62,45,60,49,43,100,67,30,30.21,30.08,8,1,8,0.00
2013-9-28,80,63,46,61,52,46,100,70,35,30.23,30.06,12,2,12,0.00
2013-9-29,67,60,56,61,58,53,100,91,69,30.10,30.03,15,4,18,0.06
2013-9-30,69,61,58,63,60,58,100,96,76,30.06,29.97,12,3,14,0.03
2013-10-1,75,64,56,66,59,56,100,86,58,30.11,30.01,12,3,17,0.00
2013-10-2,80,67,57,68,63,57,100,89,60,30.14,30.04,9,2,10,0.00
2013-10-3,77,67,62,73,66,62,100,96,72,30.12,30.00,11,3,16,0.84
2013-10-4,80,68,61,72,66,61,100,91,64,30.11,30.01,12,3,14,0.03
2013-10-5,77,69,64,71,67,64,100,94,72,30.09,29.97,13,5,15,0.26
2013-10-6,69,61,50,68,61,50,100,99,91,29.98,29.73,19,5,26,2.18
2013-10-7,58,49,41,52,44,41,100,84,57,30.21,29.86,18,5,19,0.01
2013-10-8,69,52,38,56,43,38,100,77,38,30.30,30.19,12,2,13,0.00
2013-10-9,73,56,41,52,46,40,100,73,35,30.29,30.14,9,2,11,0.00
2013-10-10,76,56,39,54,44,38,100,70,29,30.24,30.08,10,1,10,0.00
2013-10-11,80,60,42,57,48,42,100,71,32,30.15,30.00,9,1,9,0.00
2013-10-12,79,62,47,63,55,47,100,80,46,30.16,30.03,8,2,9,0.00
2013-10-13,70,58,49,61,51,40,100,80,46,30.34,30.16,13,3,14,0.00
2013-10-14,72,56,42,52,44,40,100,69,35,30.37,30.19,10,2,10,0.00
2013-10-15,71,59,45,63,56,44,100,92,70,30.24,29.97,13,3,15,0.03
2013-10-16,66,59,44,61,55,41,100,88,57,30.02,29.90,13,4,14,0.08
2013-10-17,53,45,38,50,44,38,100,95,80,30.03,29.90,17,3,18,0.08
2013-10-18,63,50,40,51,43,40,100,80,47,30.08,29.95,15,4,16,0.01
2013-10-19,50,43,38,45,41,37,100,94,74,30.05,29.89,17,4,20,0.15
2013-10-20,60,46,35,43,39,35,100,79,49,30.07,29.99,17,6,18,0.00
2013-10-21,63,51,41,48,41,37,100,69,45,30.05,29.90,19,6,19,0.01
2013-10-22,52,42,30,43,30,23,97,66,35,30.10,29.91,16,4,17,0.03
2013-10-23,43,38,32,38,34,27,100,86,59,30.08,29.81,13,5,18,0.21
2013-10-24,40,36,32,35,32,30,100,87,70,30.31,30.08,17,5,20,0.08
2013-10-25,47,35,25,32,27,23,100,75,40,30.47,30.31,14,4,14,0.01
2013-10-26,48,38,28,37,30,26,93,74,55,30.33,29.95,19,5,22,0.00
2013-10-27,57,42,27,41,33,27,100,76,41,30.15,30.06,13,2,13,0.00
2013-10-28,64,44,28,40,33,28,100,72,33,30.35,30.15,9,1,10,0.00
2013-10-29,56,45,33,45,39,31,100,81,61,30.40,30.25,8,1,8,0.00
2013-10-30,60,55,48,60,54,44,100,99,83,30.25,30.02,11,2,12,0.12
2013-10-31,61,59,54,61,58,54,100,96,84,30.03,29.38,34,8,34,1.38
2013-11-1,59,53,46,54,46,40,100,80,51,29.80,29.46,25,7,25,0.07
2013-11-2,52,46,42,42,39,33,94,75,53,30.13,29.79,19,7,19,0.00
2013-11-3,55,43,36,43,37,33,100,82,51,30.41,30.13,15,3,19,0.00
2013-11-4,55,45,35,41,36,31,97,72,51,30.45,30.32,13,4,15,0.00
2013-11-5,60,52,46,44,41,36,92,67,49,30.44,30.25,12,3,12,0.01
2013-11-6,63,54,42,57,47,35,100,79,56,30.27,30.00,28,7,28,0.33
2013-11-7,46,40,35,42,32,23,100,75,44,30.29,30.08,19,7,19,0.08
2013-11-8,47,37,26,33,29,25,100,75,46,30.40,30.23,15,4,17,0.00
2013-11-9,58,46,35,39,31,25,72,57,40,30.29,30.02,22,7,27,0.00
2013-11-10,49,41,29,39,30,26,93,67,50,30.40,30.12,22,7,23,0.00
2013-11-11,48,38,27,44,33,26,100,83,51,30.38,30.11,20,5,21,0.09
2013-11-12,34,25,21,30,22,17,100,87,59,30.66,30.27,20,7,22,0.03
2013-11-13,38,26,17,24,19,15,100,76,40,30.68,30.44,15,4,15,0.00
2013-11-14,52,36,24,24,19,15,84,54,25,30.45,30.19,19,6,22,0.00
2013-11-15,49,42,36,42,27,18,91,55,40,30.23,30.13,16,6,20,0.00
2013-11-16,58,52,43,54,50,41,100,92,86,30.17,29.94,17,6,20,0.00
2013-11-17,60,57,49,60,54,38,100,92,59,29.95,29.54,30,10,31,1.07
2013-11-18,50,42,32,40,33,26,93,71,52,30.25,29.80,27,9,29,0.00
2013-11-19,41,31,24,29,26,24,100,83,58,30.41,30.23,14,3,14,0.00
2013-11-20,50,35,24,32,28,23,99,75,48,30.41,30.24,17,4,19,0.00
2013-11-21,55,46,38,49,38,28,99,72,57,30.36,30.21,15,4,15,0.03
2013-11-22,51,45,34,51,43,28,100,94,79,30.42,30.20,22,7,23,0.15
2013-11-23,35,26,16,28,21,7,100,81,51,30.61,30.37,27,8,27,0.00
2013-11-24,23,16,9,14,11,8,100,81,56,30.72,30.56,18,4,19,0.00
2013-11-25,34,25,14,27,16,12,97,71,42,30.58,30.23,19,4,19,0.00
2013-11-26,32,29,27,32,29,26,100,99,91,30.25,29.97,13,3,16,0.04
2013-11-27,29,23,18,28,18,13,99,82,64,30.33,29.95,22,10,25,0.00
2013-11-28,32,22,15,17,15,11,96,75,47,30.48,30.30,19,5,20,0.00
2013-11-29,39,26,15,23,19,13,100,77,46,30.66,30.47,10,3,10,0.00
2013-11-30,48,33,22,28,24,19,96,72,42,30.56,30.21,11,4,13,0.00
2013-12-1,48,40,34,35,31,25,94,69,57,30.21,30.01,13,4,14,0.00
2013-12-2,49,38,30,39,35,30,100,89,66,30.02,29.83,9,2,10,0.04
2013-12-3,50,40,31,48,40,31,100,98,85,29.93,29.82,10,3,12,0.01
2013-12-4,59,52,45,56,51,44,100,96,88,29.91,29.75,17,5,19,0.00
2013-12-5,60,45,28,59,43,27,100,94,78,30.20,29.77,21,7,21,0.22
2013-12-6,28,24,22,28,24,22,100,100,98,30.44,30.17,13,6,15,0.00
2013-12-7,26,18,11,22,17,10,100,93,68,30.65,30.42,12,3,12,0.09
2013-12-8,28,21,12,28,20,12,100,99,94,30.62,30.06,14,3,15,0.00
2013-12-9,29,26,19,29,24,16,100,95,85,30.29,30.03,20,7,20,0.00
2013-12-10,25,18,14,18,14,11,100,86,59,30.40,30.18,21,6,23,0.00
2013-12-11,32,19,10,22,15,10,100,88,58,30.56,30.29,21,6,23,0.03
2013-12-12,20,12,1,11,6,0,100,80,43,30.62,30.39,14,4,14,0.00
2013-12-13,36,25,14,30,17,8,100,73,50,30.41,30.21,15,4,15,0.04
2013-12-14,34,31,26,34,31,26,100,100,100,30.23,29.77,19,6,20,0.78
2013-12-15,29,23,22,26,21,16,100,93,76,30.18,29.88,23,9,24,0.00
2013-12-16,28,24,22,28,24,21,100,100,94,30.19,30.05,15,3,15,0.05
2013-12-17,32,26,22,31,25,22,100,98,89,30.22,30.04,20,7,20,0.01
2013-12-18,33,25,16,22,18,15,100,78,51,30.31,30.10,20,6,20,0.01
2013-12-19,49,41,31,39,30,18,76,63,57,30.12,30.00,18,6,18,0.04
2013-12-20,57,51,47,57,45,35,100,83,58,30.01,29.86,20,8,24,0.01
2013-12-21,64,57,53,63,57,53,100,100,95,29.87,29.49,27,8,28,1.94
2013-12-22,59,50,35,59,48,35,100,93,73,30.10,29.54,24,8,27,0.66
2013-12-23,36,28,22,35,24,17,100,87,75,30.44,30.08,19,9,20,0.02
2013-12-24,22,14,9,20,12,8,100,92,76,30.62,30.41,19,6,19,0.00
2013-12-25,30,22,13,23,16,11,100,80,53,30.59,30.24,16,5,16,0.00
2013-12-26,37,30,25,27,21,17,91,72,47,30.41,30.23,22,7,23,0.00
2013-12-27,46,34,26,30,26,22,91,73,52,30.44,30.33,13,5,13,0.00
2013-12-28,51,39,31,33,29,26,87,67,47,30.36,30.08,16,5,18,0.00
2013-12-29,41,36,29,41,34,26,100,93,59,30.09,29.85,22,6,23,0.39
2013-12-30,30,23,18,28,20,15,100,90,74,30.31,30.07,19,6,19,0.00
2013-12-31,30,23,18,21,16,13,93,77,60,30.42,30.23,20,7,23,0.00
2014-1-1,43,30,21,29,24,19,100,79,52,30.35,30.08,14,3,14,0.00
2014-1-2,31,19,5,29,19,5,100,100,98,30.34,29.90,25,8,25,0.00